Curtis, Michigan
Current Conditions -  °F | °C
As of 6:14 AM on Saturday 25 Oct 2014 (Local Time) from KERY Reporting Station
Scattered Clouds Scattered Clouds  
Wind Chill: 50°   Ceiling: Unl
Heat Index: 50°   Visibility: 10mi
Dew Point: 48°   Wind: 10mph
Humidity: 93%   Direction: 250°WSW
Pressure: 29.64"   Gusts: 20mph
Location:  46.2°N, 85.73°W
Report Text: KERY 251014Z AUTO 25009G17KT 10SM SCT009 SCT014 10/09 A2964 RMK AO2 T01000089
Loading
Personal Weather Stations






























Interactive Weather Map
Tropical Storm Tracking
New forecast layout! Learn more

10-Day Weather Forecast

Advertisements
Track Severe Weather on mobile